Postoak, Texas
Current Conditions -  °F | °C
As of 6:55 AM on Saturday 25 Oct 2014 (Local Time) from K0F2 Reporting Station
Haze Haze  
Wind Chill: 59°   Ceiling: Unl
Heat Index: 59°   Visibility: 5mi
Dew Point: 58°   Wind: 3mph
Humidity: 98%   Direction: 150°SSE
Pressure: 30.1"   Gusts: NA
Location:  33.5529°N, 97.8448°W
Report Text: K0F2 251155Z AUTO 15003KT 5SM BR CLR 15/15 A3010 RMK AO2 T01480145 10186 20147
Loading
Personal Weather Stations






























Interactive Weather Map
Tropical Storm Tracking
New forecast layout! Learn more

10-Day Weather Forecast

Advertisements
Track Severe Weather on mobile